Time;durP1;ratioP1;P1;durP2;ratioP2;P2;SDS_P1;SDS_P2;PMS_P1;PMS_P2;Temp;Humidity;BMP_temperature;BMP_pressure;BME280_temperature;BME280_humidity;BME280_pressure;Samples;Min_cycle;Max_cycle;Signal;HPM_P1;HPM_P2
2022/03/13 00:00:49;;;;;;;13.93;9.60;;;;;;;9.95;60.77;101445.75;5073543;28;20039;-76
2022/03/13 00:03:16;;;;;;;13.67;9.47;;;;;;;9.92;61.31;101449.25;5044635;28;20120;-76
2022/03/13 00:05:44;;;;;;;13.80;9.65;;;;;;;9.91;61.00;101449.25;5068337;28;20047;-76
2022/03/13 00:08:19;;;;;;;13.85;9.60;;;;;;;9.89;61.35;101443.22;5050273;28;20025;-76
2022/03/13 00:10:47;;;;;;;14.60;9.13;;;;;;;9.88;61.08;101450.19;5052496;28;20041;-76
2022/03/13 00:13:14;;;;;;;13.65;9.20;;;;;;;9.89;61.25;101456.25;5065195;28;20465;-76
2022/03/13 00:15:40;;;;;;;16.60;9.43;;;;;;;9.88;61.16;101447.56;5052220;28;20028;-76
2022/03/13 00:18:06;;;;;;;14.05;9.80;;;;;;;9.86;61.31;101444.13;5053252;28;20502;-76
2022/03/13 00:20:32;;;;;;;13.82;8.98;;;;;;;9.87;61.61;101442.38;5065275;28;20029;-76
2022/03/13 00:22:57;;;;;;;12.75;8.68;;;;;;;9.88;61.43;101444.97;5053294;28;20549;-76
2022/03/13 00:25:23;;;;;;;14.32;9.02;;;;;;;9.83;61.83;101436.34;5053112;28;20385;-76
2022/03/13 00:27:49;;;;;;;13.02;9.10;;;;;;;9.84;62.13;101438.94;5062389;28;20035;-76
2022/03/13 00:30:15;;;;;;;13.55;8.63;;;;;;;9.82;61.99;101425.06;5054546;28;20024;-76
2022/03/13 00:32:40;;;;;;;14.82;9.10;;;;;;;9.80;62.30;101418.13;5052558;28;20491;-76
2022/03/13 00:35:06;;;;;;;16.15;9.07;;;;;;;9.81;61.71;101417.28;5053215;28;20096;-76
2022/03/13 00:37:31;;;;;;;14.65;9.07;;;;;;;9.81;61.66;101406.88;5065007;28;20039;-76
2022/03/13 00:39:57;;;;;;;16.00;9.35;;;;;;;9.79;61.86;101413.81;5056204;28;20025;-76
2022/03/13 00:42:23;;;;;;;14.63;9.35;;;;;;;9.77;61.98;101410.34;5052584;28;20025;-76
2022/03/13 00:44:49;;;;;;;14.32;9.38;;;;;;;9.71;62.04;101403.50;5051662;28;20380;-75
2022/03/13 00:47:15;;;;;;;13.82;9.45;;;;;;;9.66;62.56;101417.44;5052406;28;20479;-75
2022/03/13 00:49:41;;;;;;;14.52;9.15;;;;;;;9.59;62.79;101417.50;5061714;28;20040;-76
2022/03/13 00:52:06;;;;;;;13.65;8.98;;;;;;;9.57;62.61;101423.59;5054985;28;20055;-76
2022/03/13 00:54:33;;;;;;;13.70;8.88;;;;;;;9.53;62.38;101417.56;5052296;28;20040;-76
2022/03/13 00:56:59;;;;;;;13.25;8.63;;;;;;;9.50;62.39;101412.38;5052290;28;20036;-76
2022/03/13 00:59:24;;;;;;;13.65;8.98;;;;;;;9.43;63.20;101409.84;5051588;28;20033;-76
2022/03/13 01:01:49;;;;;;;15.05;9.45;;;;;;;9.41;63.76;101396.84;5052107;28;20052;-76
2022/03/13 01:04:15;;;;;;;12.95;9.15;;;;;;;9.39;63.30;101409.03;5052333;28;20384;-76
2022/03/13 01:06:41;;;;;;;13.45;9.23;;;;;;;9.40;63.25;101404.69;5050971;28;20100;-76
2022/03/13 01:09:07;;;;;;;12.65;8.80;;;;;;;9.38;63.59;101394.28;5052472;28;20116;-76
2022/03/13 01:11:32;;;;;;;13.38;8.93;;;;;;;9.36;63.78;101399.50;5052155;28;20051;-75
2022/03/13 01:13:58;;;;;;;13.48;9.13;;;;;;;9.30;63.95;101399.56;5051280;28;20049;-76
2022/03/13 01:16:27;;;;;;;13.25;9.18;;;;;;;9.24;64.22;101389.19;5051971;28;20433;-76
2022/03/13 01:18:58;;;;;;;14.18;8.52;;;;;;;9.17;65.07;101387.53;5051114;28;20472;-76
2022/03/13 01:21:25;;;;;;;14.32;8.70;;;;;;;9.08;64.93;101382.41;5052079;28;20029;-76
2022/03/13 01:23:59;;;;;;;14.70;9.32;;;;;;;8.98;65.73;101384.22;5051922;28;20037;-76
2022/03/13 01:26:24;;;;;;;15.48;9.43;;;;;;;8.91;65.90;101375.59;5051067;28;20393;-76
2022/03/13 01:28:56;;;;;;;15.73;9.90;;;;;;;8.86;65.96;101373.91;5051817;28;20025;-76
2022/03/13 01:31:24;;;;;;;11.95;8.32;;;;;;;8.83;66.08;101374.81;5052031;28;20271;-76
2022/03/13 01:33:49;;;;;;;13.05;8.60;;;;;;;8.76;66.77;101375.72;5050945;28;20044;-76
2022/03/13 01:36:14;;;;;;;13.70;8.85;;;;;;;8.76;66.74;101370.53;5051710;28;20556;-75
2022/03/13 01:38:41;;;;;;;11.65;8.75;;;;;;;8.70;67.20;101375.78;5051694;28;20044;-75
2022/03/13 01:41:07;;;;;;;15.02;8.43;;;;;;;8.65;67.08;101369.75;5051178;28;20039;-75
2022/03/13 01:43:33;;;;;;;12.25;8.88;;;;;;;8.57;67.32;101359.41;5051753;28;20037;-76
2022/03/13 01:46:00;;;;;;;12.23;8.77;;;;;;;8.55;68.28;101361.16;5052737;28;20074;-76
2022/03/13 01:48:26;;;;;;;13.48;8.45;;;;;;;8.46;68.38;101356.00;5053435;28;20365;-76
2022/03/13 01:50:52;;;;;;;15.35;8.27;;;;;;;8.41;68.08;101348.25;5052969;28;20458;-76
2022/03/13 01:53:18;;;;;;;11.95;8.60;;;;;;;8.42;68.55;101344.78;5051559;28;20024;-75
2022/03/13 01:55:44;;;;;;;11.50;7.97;;;;;;;8.36;68.25;101339.59;5050676;28;20032;-76
2022/03/13 01:58:09;;;;;;;12.43;7.78;;;;;;;8.32;68.64;101342.22;5067498;28;20028;-76
2022/03/13 02:00:34;;;;;;;13.43;8.10;;;;;;;8.28;69.08;101356.97;5055586;28;20029;-76
2022/03/13 02:03:00;;;;;;;14.40;7.68;;;;;;;8.16;69.44;101339.72;5066941;28;20109;-76
2022/03/13 02:05:35;;;;;;;13.43;8.35;;;;;;;8.21;68.93;101352.69;5053921;28;20029;-75
2022/03/13 02:08:12;;;;;;;13.80;8.57;;;;;;;8.15;69.43;101345.78;5067400;28;20016;-76
2022/03/13 02:10:38;;;;;;;11.77;7.47;;;;;;;8.12;70.16;101338.00;5062415;28;20032;-75
2022/03/13 02:13:03;;;;;;;10.77;7.63;;;;;;;8.17;69.57;101340.56;5051804;28;20036;-76
2022/03/13 02:15:31;;;;;;;10.98;7.90;;;;;;;8.18;69.82;101345.78;5054631;28;20044;-75
2022/03/13 02:17:56;;;;;;;11.48;7.57;;;;;;;8.19;69.71;101337.09;5073115;28;20028;-76
2022/03/13 02:20:26;;;;;;;11.45;8.43;;;;;;;8.21;69.56;101335.38;5075399;28;20078;-76
2022/03/13 02:22:58;;;;;;;14.27;8.48;;;;;;;8.28;69.28;101337.94;5074424;28;20039;-76
2022/03/13 02:25:24;;;;;;;14.07;8.00;;;;;;;8.26;70.70;101335.31;5075441;28;20139;-76
2022/03/13 02:27:49;;;;;;;14.52;8.88;;;;;;;8.31;69.82;101340.50;5062285;28;20489;-76
2022/03/13 02:30:15;;;;;;;14.55;9.77;;;;;;;8.34;69.35;101350.88;5054494;28;20496;-76
2022/03/13 02:32:40;;;;;;;13.30;9.20;;;;;;;8.36;69.37;101346.53;5055125;28;20036;-76
2022/03/13 02:35:06;;;;;;;15.80;9.75;;;;;;;8.38;69.23;101348.28;5055390;28;20468;-76
2022/03/13 02:37:34;;;;;;;18.35;10.77;;;;;;;8.41;69.51;101350.84;5054162;28;20029;-76
2022/03/13 02:40:00;;;;;;;15.07;10.65;;;;;;;8.43;69.42;101343.91;5055078;28;20100;-76
2022/03/13 02:42:25;;;;;;;15.52;10.07;;;;;;;8.46;69.28;101335.22;5054953;28;20413;-75
2022/03/13 02:44:50;;;;;;;16.10;11.10;;;;;;;8.46;69.15;101331.78;5054160;28;20163;-75
2022/03/13 02:47:15;;;;;;;19.00;10.68;;;;;;;8.49;69.80;101337.81;5054772;28;20029;-76
2022/03/13 02:49:41;;;;;;;15.73;11.25;;;;;;;8.47;70.16;101323.09;5047714;28;20072;-76
2022/03/13 02:52:06;;;;;;;18.75;11.15;;;;;;;8.45;70.82;101328.31;5033961;28;20025;-76
2022/03/13 02:54:32;;;;;;;14.85;11.02;;;;;;;8.41;70.51;101326.63;5034735;28;20029;-76
2022/03/13 02:56:59;;;;;;;18.90;11.63;;;;;;;8.36;71.44;101326.59;5034819;28;20051;-76
2022/03/13 02:59:24;;;;;;;15.45;10.43;;;;;;;8.28;72.05;101319.75;5034056;28;20032;-76
2022/03/13 03:01:50;;;;;;;18.48;11.88;;;;;;;8.30;73.03;101324.03;5034640;28;20021;-76
2022/03/13 03:04:17;;;;;;;18.90;11.57;;;;;;;8.29;73.47;101324.91;5045800;28;20033;-76
2022/03/13 03:06:54;;;;;;;18.02;11.52;;;;;;;8.30;73.02;101323.19;5054214;28;20480;-76
2022/03/13 03:09:20;;;;;;;16.73;10.95;;;;;;;8.27;73.51;101318.84;5061155;28;20485;-75
2022/03/13 03:11:46;;;;;;;17.10;11.50;;;;;;;8.29;74.04;101314.53;5063015;28;20064;-76
2022/03/13 03:14:11;;;;;;;20.63;12.90;;;;;;;8.26;74.93;101303.28;5059278;28;20380;-76
2022/03/13 03:16:37;;;;;;;19.98;13.02;;;;;;;8.30;75.00;101315.38;5071578;28;20028;-76
2022/03/13 03:19:02;;;;;;;20.33;12.95;;;;;;;8.20;75.02;101299.84;5073152;28;20040;-76
2022/03/13 03:21:27;;;;;;;18.08;12.50;;;;;;;8.23;74.94;101300.72;5070279;28;20090;-76
2022/03/13 03:23:53;;;;;;;20.55;12.77;;;;;;;8.29;75.48;101316.25;5057623;28;20028;-76
2022/03/13 03:26:18;;;;;;;18.30;12.73;;;;;;;8.29;75.85;101311.94;5053084;28;20115;-76
2022/03/13 03:28:44;;;;;;;19.88;12.90;;;;;;;8.27;75.35;101307.59;5054635;28;20062;-76
2022/03/13 03:31:10;;;;;;;20.23;13.25;;;;;;;8.25;75.75;101309.38;5065004;28;20101;-75
2022/03/13 03:33:35;;;;;;;18.48;12.88;;;;;;;8.21;76.58;101303.34;5053456;28;20025;-76
2022/03/13 03:36:01;;;;;;;20.02;13.43;;;;;;;8.17;76.20;101305.09;5054009;28;20036;-76
2022/03/13 03:38:26;;;;;;;19.75;13.85;;;;;;;8.14;76.24;101307.72;5053854;28;20039;-76
2022/03/13 03:40:51;;;;;;;20.48;14.30;;;;;;;8.13;76.36;101303.38;5053211;28;20032;-76
2022/03/13 03:43:17;;;;;;;20.27;13.85;;;;;;;8.15;76.71;101304.22;5053785;28;20098;-76
2022/03/13 03:45:42;;;;;;;21.50;13.73;;;;;;;8.14;76.86;101307.72;5053733;28;20071;-76
2022/03/13 03:48:07;;;;;;;22.75;14.30;;;;;;;8.14;77.62;101307.72;5051941;28;20515;-76
2022/03/13 03:50:33;;;;;;;20.27;13.82;;;;;;;8.11;77.27;101306.84;5053314;28;20481;-76
2022/03/13 03:52:58;;;;;;;24.42;15.02;;;;;;;8.10;77.60;101300.78;5053871;28;20037;-76
2022/03/13 03:55:25;;;;;;;22.38;14.30;;;;;;;8.12;77.74;101306.84;5052892;28;20032;-76
2022/03/13 03:57:52;;;;;;;22.73;14.85;;;;;;;8.12;77.47;101304.25;5053609;28;20028;-76
2022/03/13 04:00:18;;;;;;;21.25;14.85;;;;;;;8.12;78.23;101303.38;5053443;28;20086;-76
2022/03/13 04:02:43;;;;;;;22.05;15.18;;;;;;;8.08;77.75;101302.53;5052602;28;20052;-76
2022/03/13 04:05:12;;;;;;;21.83;14.35;;;;;;;8.11;77.67;101301.63;5053510;28;20457;-76
2022/03/13 04:07:38;;;;;;;20.85;13.82;;;;;;;8.09;78.85;101298.22;5052737;28;20033;-75
2022/03/13 04:10:08;;;;;;;23.67;15.55;;;;;;;8.03;79.31;101288.72;5053558;28;20033;-76
2022/03/13 04:12:34;;;;;;;25.50;15.55;;;;;;;8.05;78.95;101289.56;5053127;28;20476;-75
2022/03/13 04:15:01;;;;;;;24.08;16.13;;;;;;;8.02;79.43;101299.13;5052498;28;20032;-76
2022/03/13 04:17:27;;;;;;;26.10;16.13;;;;;;;8.01;79.40;101295.66;5052939;28;20067;-76
2022/03/13 04:19:52;;;;;;;26.45;16.02;;;;;;;8.02;80.17;101292.19;5053281;28;20021;-76
2022/03/13 04:22:17;;;;;;;25.90;17.20;;;;;;;8.00;77.70;101287.88;5058171;28;20024;-76
2022/03/13 04:24:42;;;;;;;27.48;17.40;;;;;;;7.97;78.11;101300.00;5070811;28;20032;-76
2022/03/13 04:27:08;;;;;;;29.00;17.75;;;;;;;7.94;78.10;101297.41;5053209;28;20519;-75
2022/03/13 04:29:34;;;;;;;27.83;18.15;;;;;;;7.90;77.57;101292.25;5071798;28;20028;-76
2022/03/13 04:32:05;;;;;;;29.90;18.95;;;;;;;7.86;78.91;101294.00;5072430;28;20546;-76
2022/03/13 04:34:31;;;;;;;31.20;19.75;;;;;;;7.76;81.24;101294.06;5069255;28;20040;-76
2022/03/13 04:36:59;;;;;;;32.10;20.15;;;;;;;7.62;82.51;101296.69;5053121;28;20029;-76
2022/03/13 04:39:24;;;;;;;30.33;20.25;;;;;;;7.47;83.29;101295.03;5052606;28;20389;-76
2022/03/13 04:41:49;;;;;;;36.05;21.63;;;;;;;7.30;84.74;101286.44;5060396;28;20017;-76
2022/03/13 04:44:14;;;;;;;30.52;19.40;;;;;;;7.20;84.24;101278.69;5071783;28;20029;-76
2022/03/13 04:46:42;;;;;;;33.03;19.88;;;;;;;7.12;84.18;101295.97;5068536;28;20071;-76
2022/03/13 04:49:07;;;;;;;31.45;20.58;;;;;;;7.03;87.13;101293.44;5052727;28;20048;-76
2022/03/13 04:51:32;;;;;;;32.05;20.83;;;;;;;6.99;85.31;101297.72;5052857;28;20025;-76
2022/03/13 04:53:58;;;;;;;35.17;20.42;;;;;;;6.94;87.32;101283.06;5052508;28;20110;-76
2022/03/13 04:56:23;;;;;;;32.63;21.75;;;;;;;6.97;87.40;101296.03;5052717;28;20079;-76
2022/03/13 04:58:49;;;;;;;34.20;21.23;;;;;;;6.92;87.32;101288.25;5060268;28;20024;-76
2022/03/13 05:01:14;;;;;;;35.30;22.00;;;;;;;6.94;87.71;101294.28;5060175;28;20115;-76
2022/03/13 05:03:39;;;;;;;36.47;21.80;;;;;;;6.94;87.27;101296.03;5059693;28;20499;-76
2022/03/13 05:06:05;;;;;;;30.98;21.65;;;;;;;6.95;84.94;101292.56;5067311;28;20035;-76
2022/03/13 05:08:31;;;;;;;32.33;20.60;;;;;;;6.98;85.44;101288.22;5069687;28;20032;-76
2022/03/13 05:10:56;;;;;;;34.83;21.52;;;;;;;7.00;85.30;101280.47;5069513;28;20028;-76
2022/03/13 05:13:23;;;;;;;33.53;22.05;;;;;;;7.03;84.20;101278.75;5053333;28;20032;-76
2022/03/13 05:15:49;;;;;;;31.55;19.90;;;;;;;7.06;84.13;101282.16;5053825;28;20385;-76
2022/03/13 05:18:14;;;;;;;31.05;19.40;;;;;;;7.06;83.84;101280.44;5055392;28;20033;-76
2022/03/13 05:20:40;;;;;;;33.05;19.88;;;;;;;7.07;83.13;101277.00;5051625;28;20384;-75
2022/03/13 05:23:07;;;;;;;28.75;19.40;;;;;;;7.12;81.37;101283.03;5053112;28;20126;-76
2022/03/13 05:25:35;;;;;;;31.75;19.95;;;;;;;7.13;81.96;101284.75;5064990;28;20120;-76
2022/03/13 05:28:00;;;;;;;32.60;19.35;;;;;;;7.16;81.33;101281.28;5057952;28;20031;-76
2022/03/13 05:30:26;;;;;;;28.02;18.63;;;;;;;7.16;81.01;101276.09;5053284;28;20037;-76
2022/03/13 05:32:51;;;;;;;30.27;19.23;;;;;;;7.18;81.90;101284.75;5070787;28;20032;-76
2022/03/13 05:35:17;;;;;;;31.67;19.52;;;;;;;7.18;80.68;101288.19;5071845;28;20037;-76
2022/03/13 05:37:44;;;;;;;29.30;18.85;;;;;;;7.14;82.28;101275.25;5065549;28;20028;-76
2022/03/13 05:40:13;;;;;;;32.95;20.13;;;;;;;7.19;81.83;101284.75;5050809;28;20495;-76
2022/03/13 05:42:44;;;;;;;29.10;18.92;;;;;;;7.21;80.51;101285.59;5052617;28;20025;-76
2022/03/13 05:45:10;;;;;;;28.40;18.73;;;;;;;7.22;80.29;101282.13;5058142;28;20038;-76
2022/03/13 05:47:43;;;;;;;25.83;17.50;;;;;;;7.23;79.94;101283.00;5071352;28;20099;-76
2022/03/13 05:50:09;;;;;;;26.30;18.45;;;;;;;7.25;79.08;101286.44;5071873;28;20099;-76
2022/03/13 05:52:34;;;;;;;26.88;17.58;;;;;;;7.26;77.77;101293.38;5071419;28;20480;-76
2022/03/13 05:55:00;;;;;;;32.42;18.60;;;;;;;7.27;77.08;101289.91;5070825;28;20554;-76
2022/03/13 05:57:25;;;;;;;28.63;17.40;;;;;;;7.31;76.68;101290.75;5052697;28;20032;-76
2022/03/13 05:59:50;;;;;;;26.65;17.13;;;;;;;7.32;76.98;101292.47;5051703;28;20024;-76
2022/03/13 06:02:16;;;;;;;27.15;17.65;;;;;;;7.26;77.55;101283.00;5050525;28;20029;-76
2022/03/13 06:04:41;;;;;;;26.85;16.40;;;;;;;7.29;77.15;101285.56;5051428;28;20036;-76
2022/03/13 06:07:06;;;;;;;29.30;17.67;;;;;;;7.34;75.92;101299.41;5051036;28;20396;-76
2022/03/13 06:09:32;;;;;;;28.05;18.10;;;;;;;7.33;75.95;101291.63;5051363;28;20085;-76
2022/03/13 06:11:58;;;;;;;27.20;17.65;;;;;;;7.35;75.63;101300.25;5051272;28;20365;-76
2022/03/13 06:14:24;;;;;;;28.70;17.48;;;;;;;7.33;76.23;101289.03;5050454;28;20484;-76
2022/03/13 06:16:50;;;;;;;29.58;17.08;;;;;;;7.31;75.24;101290.75;5051399;28;20061;-76
2022/03/13 06:19:15;;;;;;;27.40;18.00;;;;;;;7.31;76.32;101288.16;5051345;28;20025;-76
2022/03/13 06:21:41;;;;;;;25.90;16.98;;;;;;;7.33;75.20;101300.28;5050662;28;20033;-76
2022/03/13 06:24:06;;;;;;;32.45;17.40;;;;;;;7.30;75.23;101289.91;5051331;28;20465;-76
2022/03/13 06:26:32;;;;;;;27.70;16.52;;;;;;;7.25;76.04;101297.69;5050999;28;20025;-76
2022/03/13 06:28:58;;;;;;;28.42;17.08;;;;;;;7.25;75.26;101296.81;5050437;28;20120;-76
2022/03/13 06:31:24;;;;;;;30.10;17.20;;;;;;;7.21;75.26;101295.09;5051229;28;20090;-76
2022/03/13 06:33:49;;;;;;;30.23;17.67;;;;;;;7.24;75.25;101290.78;5051071;28;20542;-76
2022/03/13 06:36:14;;;;;;;24.83;16.13;;;;;;;7.30;75.93;101296.81;5050397;28;20025;-76
2022/03/13 06:38:39;;;;;;;27.13;16.65;;;;;;;7.31;74.42;101301.13;5050973;28;20468;-76
2022/03/13 06:41:05;;;;;;;26.55;17.25;;;;;;;7.33;75.07;101305.47;5051174;28;20090;-76
2022/03/13 06:43:30;;;;;;;27.42;16.75;;;;;;;7.41;75.93;101302.84;5056718;28;20067;-76
2022/03/13 06:45:56;;;;;;;27.00;17.08;;;;;;;7.46;75.66;101291.59;5051907;28;20040;-76
2022/03/13 06:48:21;;;;;;;27.55;17.33;;;;;;;7.57;75.43;101296.72;5064795;28;20025;-76
2022/03/13 06:50:48;;;;;;;26.27;17.48;;;;;;;7.59;74.59;101282.03;5051022;28;20040;-76
2022/03/13 06:53:14;;;;;;;25.73;16.63;;;;;;;7.71;73.78;101296.66;5057305;28;20029;-75
2022/03/13 06:55:40;;;;;;;26.83;16.20;;;;;;;7.66;71.67;101288.91;5064045;28;20086;-76
2022/03/13 06:58:05;;;;;;;25.67;16.55;;;;;;;7.76;71.63;101302.72;5050283;28;20025;-76
2022/03/13 07:00:31;;;;;;;26.45;16.95;;;;;;;7.77;72.20;101295.78;5053563;28;20033;-76
2022/03/13 07:02:56;;;;;;;25.88;16.73;;;;;;;7.79;70.62;101294.06;5061526;28;20041;-76
2022/03/13 07:05:23;;;;;;;25.70;16.45;;;;;;;7.84;71.63;101300.06;5072710;28;20032;-76
2022/03/13 07:07:48;;;;;;;26.25;16.63;;;;;;;7.87;71.10;101287.06;5074426;28;20109;-76
2022/03/13 07:10:13;;;;;;;26.38;16.77;;;;;;;7.89;72.04;101296.59;5074397;28;20111;-76
2022/03/13 07:12:41;;;;;;;24.00;16.15;;;;;;;7.91;70.62;101299.16;5072261;28;20049;-76
2022/03/13 07:15:10;;;;;;;25.23;16.63;;;;;;;7.93;70.50;101297.44;5054748;28;20021;-76
2022/03/13 07:17:36;;;;;;;30.33;16.95;;;;;;;7.95;71.30;101296.56;5053775;28;20468;-76
2022/03/13 07:20:01;;;;;;;28.50;17.38;;;;;;;7.97;71.57;101304.31;5054307;28;20025;-76
2022/03/13 07:22:26;;;;;;;29.33;16.73;;;;;;;7.98;71.07;101287.91;5054018;28;20044;-76
2022/03/13 07:24:52;;;;;;;25.17;16.63;;;;;;;7.98;71.22;101300.88;5053339;28;20494;-76
2022/03/13 07:27:17;;;;;;;26.25;16.98;;;;;;;7.97;70.70;101281.81;5054008;28;20032;-76
2022/03/13 07:29:42;;;;;;;31.50;16.75;;;;;;;8.03;70.69;101285.25;5053904;28;20031;-76
2022/03/13 07:32:08;;;;;;;26.05;16.00;;;;;;;8.06;71.79;101286.09;5053870;28;20472;-76
2022/03/13 07:34:33;;;;;;;24.77;16.65;;;;;;;8.06;70.87;101283.50;5053976;28;20105;-76
2022/03/13 07:36:59;;;;;;;25.95;16.85;;;;;;;8.13;70.25;101297.31;5053794;28;20079;-76
2022/03/13 07:39:24;;;;;;;28.10;15.98;;;;;;;8.16;70.54;101292.97;5053084;28;20071;-76
2022/03/13 07:41:51;;;;;;;24.00;14.82;;;;;;;8.25;69.75;101281.66;5053657;28;20056;-76
2022/03/13 07:44:17;;;;;;;23.42;16.00;;;;;;;8.35;69.17;101290.25;5053920;28;20433;-76
2022/03/13 07:46:42;;;;;;;24.70;16.52;;;;;;;8.44;67.99;101274.63;5053071;28;20057;-76
2022/03/13 07:49:07;;;;;;;26.88;17.33;;;;;;;8.55;70.69;101278.00;5053870;28;20047;-76
2022/03/13 07:51:34;;;;;;;27.33;16.67;;;;;;;8.56;68.90;101277.09;5053562;28;20094;-76
2022/03/13 07:53:59;;;;;;;27.17;16.23;;;;;;;8.59;67.23;101289.22;5052747;28;20349;-76
2022/03/13 07:56:25;;;;;;;28.02;16.00;;;;;;;8.56;68.48;101289.25;5053401;28;20086;-76
2022/03/13 07:58:50;;;;;;;27.05;16.92;;;;;;;8.56;68.20;101281.44;5053617;28;20044;-76
2022/03/13 08:01:15;;;;;;;24.95;15.77;;;;;;;8.64;67.17;101287.47;5052938;28;20415;-76
2022/03/13 08:03:44;;;;;;;24.13;16.50;;;;;;;8.78;67.69;101274.34;5053234;28;20033;-76
2022/03/13 08:06:10;;;;;;;24.38;16.25;;;;;;;8.91;67.49;101276.81;5055042;28;20028;-76
2022/03/13 08:08:35;;;;;;;24.52;16.25;;;;;;;9.06;66.16;101274.94;5063878;28;20021;-76
2022/03/13 08:11:00;;;;;;;26.17;16.83;;;;;;;9.22;66.43;101280.81;5053041;28;20031;-76
2022/03/13 08:13:26;;;;;;;23.42;16.35;;;;;;;9.34;65.02;101275.50;5053307;28;20473;-76
2022/03/13 08:15:51;;;;;;;26.98;16.55;;;;;;;9.49;65.02;101279.66;5064902;28;20036;-76
2022/03/13 08:18:16;;;;;;;30.05;17.30;;;;;;;9.59;64.65;101276.91;5053134;28;20029;-76
2022/03/13 08:20:42;;;;;;;25.33;16.30;;;;;;;9.69;63.40;101282.03;5064754;28;20472;-76
2022/03/13 08:23:07;;;;;;;24.98;16.13;;;;;;;9.72;62.87;101281.97;5066644;28;20028;-76
2022/03/13 08:25:33;;;;;;;26.73;15.77;;;;;;;9.70;62.09;101275.91;5066790;28;20035;-76
2022/03/13 08:27:58;;;;;;;25.08;16.15;;;;;;;9.70;63.53;101270.72;5064343;28;20028;-76
2022/03/13 08:30:24;;;;;;;26.40;16.85;;;;;;;9.79;64.60;101275.81;5053092;28;20025;-76
2022/03/13 08:32:49;;;;;;;23.83;16.85;;;;;;;9.94;63.71;101275.63;5052783;28;20024;-76
2022/03/13 08:35:14;;;;;;;25.33;16.27;;;;;;;9.97;62.86;101267.75;5052040;28;20021;-76
2022/03/13 08:37:40;;;;;;;24.83;16.30;;;;;;;10.12;60.94;101274.47;5052720;28;20388;-76
2022/03/13 08:40:06;;;;;;;24.75;16.23;;;;;;;10.13;62.41;101260.56;5052862;28;20025;-76
2022/03/13 08:42:32;;;;;;;29.58;16.05;;;;;;;10.20;62.82;101272.63;5051624;28;20025;-76
2022/03/13 08:44:59;;;;;;;23.00;15.82;;;;;;;10.23;61.60;101269.09;5052531;28;20032;-76
2022/03/13 08:47:25;;;;;;;28.92;16.92;;;;;;;10.23;62.33;101269.09;5052647;28;20060;-76
2022/03/13 08:49:50;;;;;;;23.52;16.10;;;;;;;10.22;61.63;101283.88;5051278;28;20065;-76
2022/03/13 08:52:16;;;;;;;27.00;16.75;;;;;;;10.26;61.29;101276.91;5059881;28;20087;-75
2022/03/13 08:54:42;;;;;;;25.88;16.67;;;;;;;10.35;62.34;101268.09;5064118;28;20033;-76
2022/03/13 08:57:07;;;;;;;26.02;16.83;;;;;;;10.43;61.54;101269.69;5052120;28;20036;-76
2022/03/13 08:59:36;;;;;;;22.83;16.58;;;;;;;10.49;61.26;101266.09;5052294;28;20416;-77
2022/03/13 09:02:02;;;;;;;27.20;16.55;;;;;;;10.49;59.76;101250.47;5057632;28;20086;-77
2022/03/13 09:04:29;;;;;;;25.17;16.23;;;;;;;10.55;61.48;101259.03;5063552;28;20450;-77
2022/03/13 09:06:55;;;;;;;26.90;17.25;;;;;;;10.65;61.45;101262.34;5070191;28;20032;-76
2022/03/13 09:09:20;;;;;;;26.40;16.17;;;;;;;10.78;60.28;101260.41;5072092;28;20025;-76
2022/03/13 09:11:47;;;;;;;27.20;16.40;;;;;;;10.89;60.63;101258.47;5065315;28;20376;-76
2022/03/13 09:14:13;;;;;;;26.90;17.27;;;;;;;10.96;59.11;101246.19;5066620;28;20029;-76
2022/03/13 09:16:40;;;;;;;24.08;16.73;;;;;;;11.04;58.99;101249.50;5065710;28;20028;-76
2022/03/13 09:19:05;;;;;;;26.13;16.05;;;;;;;11.16;59.17;101249.28;5051540;28;20543;-76
2022/03/13 09:21:31;;;;;;;25.50;17.30;;;;;;;11.26;58.62;101249.94;5052160;28;20112;-76
2022/03/13 09:23:57;;;;;;;26.63;16.42;;;;;;;11.36;58.60;101248.03;5070234;28;20051;-76
2022/03/13 09:26:22;;;;;;;28.88;17.38;;;;;;;11.46;58.09;101245.19;5065188;28;20017;-76
2022/03/13 09:28:47;;;;;;;25.38;16.55;;;;;;;11.51;57.89;101228.56;5051158;28;20434;-76
2022/03/13 09:31:12;;;;;;;28.77;15.70;;;;;;;11.65;58.27;101242.19;5051402;28;20057;-76
2022/03/13 09:33:38;;;;;;;22.83;15.25;;;;;;;11.75;58.01;101241.09;5052816;28;20036;-76
2022/03/13 09:36:03;;;;;;;25.73;16.17;;;;;;;11.92;57.56;101245.97;5052135;28;20379;-76
2022/03/13 09:38:29;;;;;;;22.27;15.27;;;;;;;12.02;57.39;101251.84;5051056;28;20467;-76
2022/03/13 09:40:55;;;;;;;24.90;15.13;;;;;;;12.17;57.82;101251.50;5052887;28;20025;-76
2022/03/13 09:43:21;;;;;;;21.02;15.35;;;;;;;12.31;55.96;101252.03;5071197;28;20123;-76
2022/03/13 09:45:48;;;;;;;19.27;14.07;;;;;;;12.38;55.61;101250.97;5071130;28;20024;-76
2022/03/13 09:48:15;;;;;;;19.77;14.07;;;;;;;12.49;55.84;101255.06;5071739;28;20067;-76
2022/03/13 09:50:41;;;;;;;21.55;14.38;;;;;;;12.54;54.22;101248.84;5066866;28;20500;-76
2022/03/13 09:53:07;;;;;;;20.58;15.00;;;;;;;12.59;54.93;101244.38;5070929;28;20029;-76
2022/03/13 09:55:32;;;;;;;21.92;14.30;;;;;;;12.61;53.68;101245.16;5070282;28;20135;-77
2022/03/13 09:57:57;;;;;;;22.35;14.63;;;;;;;12.60;54.35;101246.06;5061784;28;20423;-76
2022/03/13 10:00:25;;;;;;;20.13;14.13;;;;;;;12.57;54.35;101237.44;5050737;28;20047;-76
2022/03/13 10:02:53;;;;;;;24.52;13.75;;;;;;;12.66;55.32;101234.59;5070562;28;20036;-76
2022/03/13 10:05:21;;;;;;;22.98;13.90;;;;;;;12.78;54.36;101236.03;5069582;28;20025;-76
2022/03/13 10:07:49;;;;;;;19.90;13.57;;;;;;;12.83;54.14;101234.16;5059625;28;20491;-76
2022/03/13 10:10:14;;;;;;;19.58;14.15;;;;;;;12.93;54.52;101224.31;5056119;28;20093;-76
2022/03/13 10:12:41;;;;;;;20.02;12.85;;;;;;;13.04;54.15;101235.31;5051049;28;20033;-76
2022/03/13 10:15:07;;;;;;;19.27;12.90;;;;;;;13.08;53.19;101229.13;5050801;28;20104;-76
2022/03/13 10:17:34;;;;;;;18.85;13.35;;;;;;;13.17;52.68;101228.84;5051157;28;20025;-76
2022/03/13 10:20:20;;;;;;;20.33;12.95;;;;;;;13.25;53.79;101220.84;5051079;28;20017;-75
2022/03/13 10:22:54;;;;;;;21.65;13.88;;;;;;;13.41;52.59;101213.41;5050949;28;20040;-76
2022/03/13 10:25:31;;;;;;;17.85;12.43;;;;;;;13.57;53.48;101219.91;5054749;28;20028;-75
2022/03/13 10:28:10;;;;;;;20.83;13.18;;;;;;;13.72;51.91;101222.03;5057775;28;20055;-76
2022/03/13 10:30:37;;;;;;;18.63;12.50;;;;;;;13.86;52.62;101218.97;5051467;28;20029;-76
2022/03/13 10:33:02;;;;;;;18.92;12.75;;;;;;;13.95;50.65;101199.50;5051234;28;20163;-76
2022/03/13 10:35:28;;;;;;;17.98;12.80;;;;;;;13.98;50.91;101200.25;5050556;28;20111;-76
2022/03/13 10:37:53;;;;;;;17.17;12.00;;;;;;;14.00;50.24;101202.84;5052280;28;20040;-76
2022/03/13 10:40:22;;;;;;;15.25;11.23;;;;;;;14.07;51.69;101206.97;5061511;28;20071;-76
2022/03/13 10:42:49;;;;;;;16.88;11.68;;;;;;;14.18;50.52;101196.16;5072270;28;20560;-76
2022/03/13 10:45:39;;;;;;;16.10;11.98;;;;;;;14.27;50.61;101208.97;5074747;28;20453;-76
2022/03/13 10:48:32;;;;;;;20.00;11.27;;;;;;;14.37;50.40;101193.78;5073532;28;20029;-76
2022/03/13 10:51:00;;;;;;;17.85;11.70;;;;;;;14.44;51.06;101192.66;5074834;28;20032;-76
2022/03/13 10:53:27;;;;;;;17.98;12.15;;;;;;;14.47;49.27;101190.78;5064728;28;20072;-76
2022/03/13 10:56:20;;;;;;;16.45;11.68;;;;;;;14.33;49.72;101200.88;5074143;28;20078;-76
2022/03/13 10:58:45;;;;;;;19.60;11.98;;;;;;;14.21;49.40;101196.03;5074210;28;20047;-76
2022/03/13 11:01:13;;;;;;;16.15;11.93;;;;;;;14.12;49.45;101199.81;5057292;28;20473;-75
2022/03/13 11:03:56;;;;;;;15.55;10.65;;;;;;;14.26;50.51;101191.53;5056444;28;20056;-76
2022/03/13 11:06:24;;;;;;;15.23;11.43;;;;;;;14.43;48.99;101191.81;5054720;28;20017;-76
2022/03/13 11:08:53;;;;;;;16.02;11.63;;;;;;;14.63;48.42;101183.28;5055593;28;20037;-76
2022/03/13 11:11:19;;;;;;;17.55;11.65;;;;;;;14.84;47.80;101188.66;5055071;28;20029;-76
2022/03/13 11:13:49;;;;;;;15.43;10.73;;;;;;;15.09;49.09;101184.25;5074422;28;20373;-76